sensor_id;sensor_type;location;lat;lon;timestamp;temperature;humidity
35277;DHT22;21401;50.878;8.050;2022-10-31T00:00:45;9.50;99.90
35277;DHT22;21401;50.878;8.050;2022-10-31T00:03:11;9.50;99.90
35277;DHT22;21401;50.878;8.050;2022-10-31T00:05:41;9.50;99.90
35277;DHT22;21401;50.878;8.050;2022-10-31T00:08:08;9.50;99.90
35277;DHT22;21401;50.878;8.050;2022-10-31T00:10:37;9.40;99.90
35277;DHT22;21401;50.878;8.050;2022-10-31T00:13:03;9.30;99.90
35277;DHT22;21401;50.878;8.050;2022-10-31T00:15:29;9.20;99.90
35277;DHT22;21401;50.878;8.050;2022-10-31T00:17:55;9.20;99.90
35277;DHT22;21401;50.878;8.050;2022-10-31T00:20:20;9.20;99.90
35277;DHT22;21401;50.878;8.050;2022-10-31T00:22:46;9.20;99.90
35277;DHT22;21401;50.878;8.050;2022-10-31T00:25:12;9.30;99.90
35277;DHT22;21401;50.878;8.050;2022-10-31T00:27:41;9.30;99.90
35277;DHT22;21401;50.878;8.050;2022-10-31T00:30:35;9.20;99.90
35277;DHT22;21401;50.878;8.050;2022-10-31T00:33:03;9.20;99.90
35277;DHT22;21401;50.878;8.050;2022-10-31T00:35:31;9.10;99.90
35277;DHT22;21401;50.878;8.050;2022-10-31T00:37:57;9.00;99.90
35277;DHT22;21401;50.878;8.050;2022-10-31T00:40:24;9.10;99.90
35277;DHT22;21401;50.878;8.050;2022-10-31T00:42:49;9.20;99.90
35277;DHT22;21401;50.878;8.050;2022-10-31T00:45:15;9.10;99.90
35277;DHT22;21401;50.878;8.050;2022-10-31T00:47:41;9.10;99.90
35277;DHT22;21401;50.878;8.050;2022-10-31T00:50:07;9.00;99.90
35277;DHT22;21401;50.878;8.050;2022-10-31T00:52:33;8.90;99.90
35277;DHT22;21401;50.878;8.050;2022-10-31T00:54:59;8.80;99.90
35277;DHT22;21401;50.878;8.050;2022-10-31T00:57:27;8.80;99.90
35277;DHT22;21401;50.878;8.050;2022-10-31T00:59:53;9.00;99.90
35277;DHT22;21401;50.878;8.050;2022-10-31T01:02:18;8.90;99.90
35277;DHT22;21401;50.878;8.050;2022-10-31T01:04:44;8.90;99.90
35277;DHT22;21401;50.878;8.050;2022-10-31T01:07:12;8.90;99.90
35277;DHT22;21401;50.878;8.050;2022-10-31T01:09:39;9.00;99.90
35277;DHT22;21401;50.878;8.050;2022-10-31T01:12:05;9.10;99.90
35277;DHT22;21401;50.878;8.050;2022-10-31T01:14:31;8.90;99.90
35277;DHT22;21401;50.878;8.050;2022-10-31T01:16:57;8.80;99.90
35277;DHT22;21401;50.878;8.050;2022-10-31T01:19:23;8.70;99.90
35277;DHT22;21401;50.878;8.050;2022-10-31T01:21:49;8.70;99.90
35277;DHT22;21401;50.878;8.050;2022-10-31T01:24:14;8.70;99.90
35277;DHT22;21401;50.878;8.050;2022-10-31T01:26:40;8.60;99.90
35277;DHT22;21401;50.878;8.050;2022-10-31T01:29:07;8.60;99.90
35277;DHT22;21401;50.878;8.050;2022-10-31T01:31:36;8.60;99.90
35277;DHT22;21401;50.878;8.050;2022-10-31T01:34:03;8.70;99.90
35277;DHT22;21401;50.878;8.050;2022-10-31T01:39:00;8.80;99.90
35277;DHT22;21401;50.878;8.050;2022-10-31T01:41:32;8.80;99.90
35277;DHT22;21401;50.878;8.050;2022-10-31T01:47:14;9.00;99.90
35277;DHT22;21401;50.878;8.050;2022-10-31T01:49:48;9.00;99.90
35277;DHT22;21401;50.878;8.050;2022-10-31T01:52:36;8.90;99.90
35277;DHT22;21401;50.878;8.050;2022-10-31T01:55:19;9.00;99.90
35277;DHT22;21401;50.878;8.050;2022-10-31T01:57:49;9.00;99.90
35277;DHT22;21401;50.878;8.050;2022-10-31T02:00:16;9.00;99.90
35277;DHT22;21401;50.878;8.050;2022-10-31T02:02:43;9.00;99.90
35277;DHT22;21401;50.878;8.050;2022-10-31T02:05:14;9.10;99.90
35277;DHT22;21401;50.878;8.050;2022-10-31T02:07:53;9.10;99.90
35277;DHT22;21401;50.878;8.050;2022-10-31T02:10:23;9.10;99.90
35277;DHT22;21401;50.878;8.050;2022-10-31T02:12:56;9.00;99.90
35277;DHT22;21401;50.878;8.050;2022-10-31T02:15:26;9.00;99.90
35277;DHT22;21401;50.878;8.050;2022-10-31T02:17:54;8.90;99.90
35277;DHT22;21401;50.878;8.050;2022-10-31T02:20:25;8.80;99.90
35277;DHT22;21401;50.878;8.050;2022-10-31T02:28:52;8.80;99.90
35277;DHT22;21401;50.878;8.050;2022-10-31T02:31:39;8.80;99.90
35277;DHT22;21401;50.878;8.050;2022-10-31T02:34:49;8.80;99.90
35277;DHT22;21401;50.878;8.050;2022-10-31T02:37:28;8.70;99.90
35277;DHT22;21401;50.878;8.050;2022-10-31T02:40:10;8.60;99.90
35277;DHT22;21401;50.878;8.050;2022-10-31T02:45:30;8.70;99.90
35277;DHT22;21401;50.878;8.050;2022-10-31T02:48:03;8.80;99.90
35277;DHT22;21401;50.878;8.050;2022-10-31T02:50:35;8.80;99.90
35277;DHT22;21401;50.878;8.050;2022-10-31T02:53:05;8.80;99.90
35277;DHT22;21401;50.878;8.050;2022-10-31T02:58:12;8.80;99.90
35277;DHT22;21401;50.878;8.050;2022-10-31T03:00:57;8.60;99.90
35277;DHT22;21401;50.878;8.050;2022-10-31T03:03:34;8.50;99.90
35277;DHT22;21401;50.878;8.050;2022-10-31T03:11:36;8.30;99.90
35277;DHT22;21401;50.878;8.050;2022-10-31T03:14:11;8.50;99.90
35277;DHT22;21401;50.878;8.050;2022-10-31T03:16:46;8.40;99.90
35277;DHT22;21401;50.878;8.050;2022-10-31T03:21:47;8.50;99.90
35277;DHT22;21401;50.878;8.050;2022-10-31T03:24:19;8.40;99.90
35277;DHT22;21401;50.878;8.050;2022-10-31T03:27:02;8.40;99.90
35277;DHT22;21401;50.878;8.050;2022-10-31T03:29:33;8.40;99.90
35277;DHT22;21401;50.878;8.050;2022-10-31T03:32:08;8.40;99.90
35277;DHT22;21401;50.878;8.050;2022-10-31T03:34:36;8.40;99.90
35277;DHT22;21401;50.878;8.050;2022-10-31T03:37:08;8.30;99.90
35277;DHT22;21401;50.878;8.050;2022-10-31T03:39:36;8.40;99.90
35277;DHT22;21401;50.878;8.050;2022-10-31T03:42:14;8.40;99.90
35277;DHT22;21401;50.878;8.050;2022-10-31T03:44:44;8.30;99.90
35277;DHT22;21401;50.878;8.050;2022-10-31T03:47:11;8.30;99.90
35277;DHT22;21401;50.878;8.050;2022-10-31T03:50:01;8.40;99.90
35277;DHT22;21401;50.878;8.050;2022-10-31T03:58:06;8.20;99.90
35277;DHT22;21401;50.878;8.050;2022-10-31T04:00:35;8.20;99.90
35277;DHT22;21401;50.878;8.050;2022-10-31T04:03:25;8.20;99.90
35277;DHT22;21401;50.878;8.050;2022-10-31T04:06:04;8.20;99.90
35277;DHT22;21401;50.878;8.050;2022-10-31T04:08:33;8.30;99.90
35277;DHT22;21401;50.878;8.050;2022-10-31T04:11:04;8.30;99.90
35277;DHT22;21401;50.878;8.050;2022-10-31T04:13:33;8.30;99.90
35277;DHT22;21401;50.878;8.050;2022-10-31T04:16:04;8.30;99.90
35277;DHT22;21401;50.878;8.050;2022-10-31T04:18:30;8.30;99.90
35277;DHT22;21401;50.878;8.050;2022-10-31T04:21:00;8.30;99.90
35277;DHT22;21401;50.878;8.050;2022-10-31T04:23:27;8.30;99.90
35277;DHT22;21401;50.878;8.050;2022-10-31T04:25:53;8.30;99.90
35277;DHT22;21401;50.878;8.050;2022-10-31T04:28:20;8.30;99.90
35277;DHT22;21401;50.878;8.050;2022-10-31T04:30:52;8.20;99.90
35277;DHT22;21401;50.878;8.050;2022-10-31T04:33:20;8.20;99.90
35277;DHT22;21401;50.878;8.050;2022-10-31T04:35:47;8.20;99.90
35277;DHT22;21401;50.878;8.050;2022-10-31T04:38:12;8.30;99.90
35277;DHT22;21401;50.878;8.050;2022-10-31T04:40:38;8.30;99.90
35277;DHT22;21401;50.878;8.050;2022-10-31T04:43:04;8.20;99.90
35277;DHT22;21401;50.878;8.050;2022-10-31T04:45:30;8.20;99.90
35277;DHT22;21401;50.878;8.050;2022-10-31T04:47:55;8.20;99.90
35277;DHT22;21401;50.878;8.050;2022-10-31T04:50:21;8.30;99.90
35277;DHT22;21401;50.878;8.050;2022-10-31T04:52:47;8.20;99.90
35277;DHT22;21401;50.878;8.050;2022-10-31T04:55:13;8.30;99.90
35277;DHT22;21401;50.878;8.050;2022-10-31T04:57:43;8.30;99.90
35277;DHT22;21401;50.878;8.050;2022-10-31T05:00:10;8.20;99.90
35277;DHT22;21401;50.878;8.050;2022-10-31T05:02:46;8.00;99.90
35277;DHT22;21401;50.878;8.050;2022-10-31T05:05:13;8.00;99.90
35277;DHT22;21401;50.878;8.050;2022-10-31T05:07:44;8.00;99.90
35277;DHT22;21401;50.878;8.050;2022-10-31T05:10:12;8.00;99.90
35277;DHT22;21401;50.878;8.050;2022-10-31T05:12:48;8.00;99.90
35277;DHT22;21401;50.878;8.050;2022-10-31T05:15:16;7.80;99.90
35277;DHT22;21401;50.878;8.050;2022-10-31T05:17:42;7.90;99.90
35277;DHT22;21401;50.878;8.050;2022-10-31T05:20:09;8.00;99.90
35277;DHT22;21401;50.878;8.050;2022-10-31T05:22:35;7.90;99.90
35277;DHT22;21401;50.878;8.050;2022-10-31T05:25:01;7.90;99.90
35277;DHT22;21401;50.878;8.050;2022-10-31T05:27:28;7.70;99.90
35277;DHT22;21401;50.878;8.050;2022-10-31T05:29:53;7.60;99.90
35277;DHT22;21401;50.878;8.050;2022-10-31T05:32:19;7.70;99.90
35277;DHT22;21401;50.878;8.050;2022-10-31T05:34:45;7.70;99.90
35277;DHT22;21401;50.878;8.050;2022-10-31T05:37:10;7.70;99.90
35277;DHT22;21401;50.878;8.050;2022-10-31T05:39:37;7.70;99.90
35277;DHT22;21401;50.878;8.050;2022-10-31T05:42:02;7.60;99.90
35277;DHT22;21401;50.878;8.050;2022-10-31T05:44:28;7.60;99.90
35277;DHT22;21401;50.878;8.050;2022-10-31T05:46:54;7.60;99.90
35277;DHT22;21401;50.878;8.050;2022-10-31T05:49:19;7.60;99.90
35277;DHT22;21401;50.878;8.050;2022-10-31T05:51:48;7.60;99.90
35277;DHT22;21401;50.878;8.050;2022-10-31T05:54:13;7.60;99.90
35277;DHT22;21401;50.878;8.050;2022-10-31T05:56:39;7.50;99.90
35277;DHT22;21401;50.878;8.050;2022-10-31T05:59:05;7.50;99.90
35277;DHT22;21401;50.878;8.050;2022-10-31T06:01:30;7.50;99.90
35277;DHT22;21401;50.878;8.050;2022-10-31T06:03:59;7.60;99.90
35277;DHT22;21401;50.878;8.050;2022-10-31T06:06:24;7.60;99.90
35277;DHT22;21401;50.878;8.050;2022-10-31T06:08:50;7.70;99.90
35277;DHT22;21401;50.878;8.050;2022-10-31T06:11:16;7.80;99.90
35277;DHT22;21401;50.878;8.050;2022-10-31T06:13:42;7.70;99.90
35277;DHT22;21401;50.878;8.050;2022-10-31T06:16:08;7.60;99.90
35277;DHT22;21401;50.878;8.050;2022-10-31T06:18:34;7.50;99.90
35277;DHT22;21401;50.878;8.050;2022-10-31T06:21:00;7.50;99.90
35277;DHT22;21401;50.878;8.050;2022-10-31T06:23:26;7.40;99.90
35277;DHT22;21401;50.878;8.050;2022-10-31T06:25:59;7.40;99.90
35277;DHT22;21401;50.878;8.050;2022-10-31T06:28:25;7.50;99.90
35277;DHT22;21401;50.878;8.050;2022-10-31T06:30:50;7.60;99.90
35277;DHT22;21401;50.878;8.050;2022-10-31T06:33:16;7.70;99.90
35277;DHT22;21401;50.878;8.050;2022-10-31T06:35:48;7.60;99.90
35277;DHT22;21401;50.878;8.050;2022-10-31T06:38:14;7.60;99.90
35277;DHT22;21401;50.878;8.050;2022-10-31T06:40:40;7.60;99.90
35277;DHT22;21401;50.878;8.050;2022-10-31T06:43:05;7.50;99.90
35277;DHT22;21401;50.878;8.050;2022-10-31T06:45:31;7.60;99.90
35277;DHT22;21401;50.878;8.050;2022-10-31T06:47:57;7.60;99.90
35277;DHT22;21401;50.878;8.050;2022-10-31T06:50:23;7.70;99.90
35277;DHT22;21401;50.878;8.050;2022-10-31T06:52:56;7.80;99.90
35277;DHT22;21401;50.878;8.050;2022-10-31T06:55:23;7.70;99.90
35277;DHT22;21401;50.878;8.050;2022-10-31T06:57:57;7.60;99.90
35277;DHT22;21401;50.878;8.050;2022-10-31T07:00:23;7.60;99.90
35277;DHT22;21401;50.878;8.050;2022-10-31T07:02:57;7.80;99.90
35277;DHT22;21401;50.878;8.050;2022-10-31T07:05:23;7.90;99.90
35277;DHT22;21401;50.878;8.050;2022-10-31T07:07:52;7.90;99.90
35277;DHT22;21401;50.878;8.050;2022-10-31T07:10:19;7.90;99.90
35277;DHT22;21401;50.878;8.050;2022-10-31T07:12:45;8.00;99.90
35277;DHT22;21401;50.878;8.050;2022-10-31T07:15:12;8.10;99.90
35277;DHT22;21401;50.878;8.050;2022-10-31T07:17:39;8.10;99.90
35277;DHT22;21401;50.878;8.050;2022-10-31T07:20:08;8.00;99.90
35277;DHT22;21401;50.878;8.050;2022-10-31T07:22:35;8.00;99.90
35277;DHT22;21401;50.878;8.050;2022-10-31T07:25:04;8.20;99.90
35277;DHT22;21401;50.878;8.050;2022-10-31T07:27:39;8.50;99.90
35277;DHT22;21401;50.878;8.050;2022-10-31T07:30:07;8.60;99.90
35277;DHT22;21401;50.878;8.050;2022-10-31T07:32:51;8.60;99.90
35277;DHT22;21401;50.878;8.050;2022-10-31T07:35:19;8.70;99.90
35277;DHT22;21401;50.878;8.050;2022-10-31T07:37:45;8.80;99.90
35277;DHT22;21401;50.878;8.050;2022-10-31T07:40:11;8.90;99.90
35277;DHT22;21401;50.878;8.050;2022-10-31T07:42:41;8.90;99.90
35277;DHT22;21401;50.878;8.050;2022-10-31T07:45:09;9.00;99.90
35277;DHT22;21401;50.878;8.050;2022-10-31T07:47:42;9.00;99.90
35277;DHT22;21401;50.878;8.050;2022-10-31T07:50:11;9.10;99.90
35277;DHT22;21401;50.878;8.050;2022-10-31T07:52:37;9.30;99.90
35277;DHT22;21401;50.878;8.050;2022-10-31T07:55:04;9.40;99.90
35277;DHT22;21401;50.878;8.050;2022-10-31T07:57:33;9.50;99.90
35277;DHT22;21401;50.878;8.050;2022-10-31T07:59:59;9.60;99.90
35277;DHT22;21401;50.878;8.050;2022-10-31T08:02:26;9.80;99.90
35277;DHT22;21401;50.878;8.050;2022-10-31T08:04:51;9.90;99.90
35277;DHT22;21401;50.878;8.050;2022-10-31T08:07:17;9.90;99.90
35277;DHT22;21401;50.878;8.050;2022-10-31T08:09:43;9.80;99.90
35277;DHT22;21401;50.878;8.050;2022-10-31T08:12:11;9.70;99.90
35277;DHT22;21401;50.878;8.050;2022-10-31T08:14:37;9.90;99.90
35277;DHT22;21401;50.878;8.050;2022-10-31T08:17:05;10.00;99.90
35277;DHT22;21401;50.878;8.050;2022-10-31T08:19:34;10.00;99.90
35277;DHT22;21401;50.878;8.050;2022-10-31T08:22:02;10.10;99.90
35277;DHT22;21401;50.878;8.050;2022-10-31T08:24:38;10.20;99.90
35277;DHT22;21401;50.878;8.050;2022-10-31T08:27:04;10.30;99.90
35277;DHT22;21401;50.878;8.050;2022-10-31T08:29:55;10.40;99.90
35277;DHT22;21401;50.878;8.050;2022-10-31T08:35:32;10.50;99.90
35277;DHT22;21401;50.878;8.050;2022-10-31T08:38:00;10.50;99.90
35277;DHT22;21401;50.878;8.050;2022-10-31T08:40:31;10.40;99.90
35277;DHT22;21401;50.878;8.050;2022-10-31T08:43:02;10.40;99.90
35277;DHT22;21401;50.878;8.050;2022-10-31T08:45:29;10.60;99.90
35277;DHT22;21401;50.878;8.050;2022-10-31T08:47:59;10.80;99.90
35277;DHT22;21401;50.878;8.050;2022-10-31T08:50:26;11.10;99.90
35277;DHT22;21401;50.878;8.050;2022-10-31T08:52:58;11.40;99.90
35277;DHT22;21401;50.878;8.050;2022-10-31T08:55:24;11.70;99.90
35277;DHT22;21401;50.878;8.050;2022-10-31T08:57:57;11.70;99.90
35277;DHT22;21401;50.878;8.050;2022-10-31T09:00:23;11.60;99.90
35277;DHT22;21401;50.878;8.050;2022-10-31T09:02:59;11.90;99.90
35277;DHT22;21401;50.878;8.050;2022-10-31T09:05:25;11.90;99.90
35277;DHT22;21401;50.878;8.050;2022-10-31T09:07:55;12.10;99.90
35277;DHT22;21401;50.878;8.050;2022-10-31T09:10:22;12.70;99.90
35277;DHT22;21401;50.878;8.050;2022-10-31T09:12:47;13.00;99.90
35277;DHT22;21401;50.878;8.050;2022-10-31T09:15:19;13.30;99.90
35277;DHT22;21401;50.878;8.050;2022-10-31T09:17:48;13.50;99.90
35277;DHT22;21401;50.878;8.050;2022-10-31T09:20:17;13.80;99.90
35277;DHT22;21401;50.878;8.050;2022-10-31T09:22:43;14.00;99.90
35277;DHT22;21401;50.878;8.050;2022-10-31T09:25:09;13.90;99.90
35277;DHT22;21401;50.878;8.050;2022-10-31T09:27:35;14.20;99.90
35277;DHT22;21401;50.878;8.050;2022-10-31T09:30:04;13.80;99.90
35277;DHT22;21401;50.878;8.050;2022-10-31T09:32:30;13.20;99.90
35277;DHT22;21401;50.878;8.050;2022-10-31T09:34:58;13.00;99.90
35277;DHT22;21401;50.878;8.050;2022-10-31T09:37:23;13.00;99.90
35277;DHT22;21401;50.878;8.050;2022-10-31T09:39:50;13.10;99.90
35277;DHT22;21401;50.878;8.050;2022-10-31T09:45:19;13.30;99.90
35277;DHT22;21401;50.878;8.050;2022-10-31T09:50:54;13.80;99.90
35277;DHT22;21401;50.878;8.050;2022-10-31T09:53:46;14.10;99.90
35277;DHT22;21401;50.878;8.050;2022-10-31T09:56:17;14.50;99.90
35277;DHT22;21401;50.878;8.050;2022-10-31T09:58:50;15.00;99.90
35277;DHT22;21401;50.878;8.050;2022-10-31T10:01:50;15.30;99.90
35277;DHT22;21401;50.878;8.050;2022-10-31T10:06:57;15.60;99.90
35277;DHT22;21401;50.878;8.050;2022-10-31T10:09:27;15.80;99.90
35277;DHT22;21401;50.878;8.050;2022-10-31T10:12:36;16.00;99.90
35277;DHT22;21401;50.878;8.050;2022-10-31T10:24:52;16.30;99.90
35277;DHT22;21401;50.878;8.050;2022-10-31T10:30:21;16.90;99.90
35277;DHT22;21401;50.878;8.050;2022-10-31T10:32:54;17.00;99.90
35277;DHT22;21401;50.878;8.050;2022-10-31T10:37:47;17.50;99.90
35277;DHT22;21401;50.878;8.050;2022-10-31T10:40:17;17.50;99.90
35277;DHT22;21401;50.878;8.050;2022-10-31T10:46:16;17.80;99.90
35277;DHT22;21401;50.878;8.050;2022-10-31T10:49:22;18.20;99.90
35277;DHT22;21401;50.878;8.050;2022-10-31T10:55:29;18.40;99.90
35277;DHT22;21401;50.878;8.050;2022-10-31T10:58:06;18.20;99.90
35277;DHT22;21401;50.878;8.050;2022-10-31T11:00:44;18.60;99.90
35277;DHT22;21401;50.878;8.050;2022-10-31T11:03:17;19.10;99.90
35277;DHT22;21401;50.878;8.050;2022-10-31T11:11:23;19.30;99.90
35277;DHT22;21401;50.878;8.050;2022-10-31T11:13:55;19.20;99.90
35277;DHT22;21401;50.878;8.050;2022-10-31T11:16:33;19.10;99.90
35277;DHT22;21401;50.878;8.050;2022-10-31T11:19:09;19.10;99.90
35277;DHT22;21401;50.878;8.050;2022-10-31T11:21:42;18.60;99.90
35277;DHT22;21401;50.878;8.050;2022-10-31T11:26:36;18.50;99.90
35277;DHT22;21401;50.878;8.050;2022-10-31T11:29:04;18.50;99.90
35277;DHT22;21401;50.878;8.050;2022-10-31T11:31:40;18.50;99.90
35277;DHT22;21401;50.878;8.050;2022-10-31T11:34:41;18.60;99.90
35277;DHT22;21401;50.878;8.050;2022-10-31T11:37:23;18.50;99.90
35277;DHT22;21401;50.878;8.050;2022-10-31T11:39:58;18.50;99.90
35277;DHT22;21401;50.878;8.050;2022-10-31T11:42:41;18.60;99.90
35277;DHT22;21401;50.878;8.050;2022-10-31T11:47:50;18.90;99.90
35277;DHT22;21401;50.878;8.050;2022-10-31T11:50:31;18.70;99.90
35277;DHT22;21401;50.878;8.050;2022-10-31T11:52:58;18.70;99.90
35277;DHT22;21401;50.878;8.050;2022-10-31T11:55:33;18.70;99.90
35277;DHT22;21401;50.878;8.050;2022-10-31T11:57:59;18.60;99.90
35277;DHT22;21401;50.878;8.050;2022-10-31T12:00:37;18.60;99.90
35277;DHT22;21401;50.878;8.050;2022-10-31T12:05:40;18.70;99.90
35277;DHT22;21401;50.878;8.050;2022-10-31T12:08:12;18.70;99.90
35277;DHT22;21401;50.878;8.050;2022-10-31T12:19:30;18.70;99.90
35277;DHT22;21401;50.878;8.050;2022-10-31T12:22:04;18.90;99.90
35277;DHT22;21401;50.878;8.050;2022-10-31T12:48:24;18.40;99.90
35277;DHT22;21401;50.878;8.050;2022-10-31T12:54:06;18.30;99.90
35277;DHT22;21401;50.878;8.050;2022-10-31T13:02:20;18.20;99.90
35277;DHT22;21401;50.878;8.050;2022-10-31T13:10:08;18.10;99.90
35277;DHT22;21401;50.878;8.050;2022-10-31T13:12:36;18.20;99.90
35277;DHT22;21401;50.878;8.050;2022-10-31T13:15:24;18.10;99.90
35277;DHT22;21401;50.878;8.050;2022-10-31T13:17:55;18.10;99.90
35277;DHT22;21401;50.878;8.050;2022-10-31T13:20:29;18.00;99.90
35277;DHT22;21401;50.878;8.050;2022-10-31T13:23:20;18.00;99.90
35277;DHT22;21401;50.878;8.050;2022-10-31T13:25:53;18.00;99.90
35277;DHT22;21401;50.878;8.050;2022-10-31T13:28:31;17.90;99.90
35277;DHT22;21401;50.878;8.050;2022-10-31T13:31:00;17.80;99.90
35277;DHT22;21401;50.878;8.050;2022-10-31T13:33:34;17.80;99.90
35277;DHT22;21401;50.878;8.050;2022-10-31T13:36:15;17.80;99.90
35277;DHT22;21401;50.878;8.050;2022-10-31T13:41:56;17.80;99.90
35277;DHT22;21401;50.878;8.050;2022-10-31T13:44:40;17.80;99.90
35277;DHT22;21401;50.878;8.050;2022-10-31T13:47:37;17.70;99.90
35277;DHT22;21401;50.878;8.050;2022-10-31T13:50:20;17.80;99.90
35277;DHT22;21401;50.878;8.050;2022-10-31T13:52:46;17.80;99.90
35277;DHT22;21401;50.878;8.050;2022-10-31T13:55:43;17.70;99.90
35277;DHT22;21401;50.878;8.050;2022-10-31T13:58:23;17.70;99.90
35277;DHT22;21401;50.878;8.050;2022-10-31T14:03:42;17.70;99.90
35277;DHT22;21401;50.878;8.050;2022-10-31T14:06:15;17.70;99.90
35277;DHT22;21401;50.878;8.050;2022-10-31T14:08:50;17.70;99.90
35277;DHT22;21401;50.878;8.050;2022-10-31T14:11:25;17.70;99.90
35277;DHT22;21401;50.878;8.050;2022-10-31T14:13:58;17.70;99.90
35277;DHT22;21401;50.878;8.050;2022-10-31T14:16:30;17.70;99.90
35277;DHT22;21401;50.878;8.050;2022-10-31T14:19:19;17.60;99.90
35277;DHT22;21401;50.878;8.050;2022-10-31T14:21:49;17.70;99.90
35277;DHT22;21401;50.878;8.050;2022-10-31T14:27:32;17.60;99.90
35277;DHT22;21401;50.878;8.050;2022-10-31T14:30:08;17.60;99.90
35277;DHT22;21401;50.878;8.050;2022-10-31T14:33:12;17.60;99.90
35277;DHT22;21401;50.878;8.050;2022-10-31T14:36:10;17.50;99.90
35277;DHT22;21401;50.878;8.050;2022-10-31T14:38:49;17.50;99.90
35277;DHT22;21401;50.878;8.050;2022-10-31T14:47:45;17.30;99.90
35277;DHT22;21401;50.878;8.050;2022-10-31T14:53:22;17.20;99.90
35277;DHT22;21401;50.878;8.050;2022-10-31T14:55:52;17.20;99.90
35277;DHT22;21401;50.878;8.050;2022-10-31T14:58:28;17.20;99.90
35277;DHT22;21401;50.878;8.050;2022-10-31T15:00:58;17.20;99.90
35277;DHT22;21401;50.878;8.050;2022-10-31T15:03:31;17.20;99.90
35277;DHT22;21401;50.878;8.050;2022-10-31T15:06:30;17.20;99.90
35277;DHT22;21401;50.878;8.050;2022-10-31T15:09:01;17.20;99.90
35277;DHT22;21401;50.878;8.050;2022-10-31T15:11:48;17.10;99.90
35277;DHT22;21401;50.878;8.050;2022-10-31T15:14:28;17.10;99.90
35277;DHT22;21401;50.878;8.050;2022-10-31T15:16:56;17.10;99.90
35277;DHT22;21401;50.878;8.050;2022-10-31T15:19:34;17.00;99.90
35277;DHT22;21401;50.878;8.050;2022-10-31T15:22:00;17.00;99.90
35277;DHT22;21401;50.878;8.050;2022-10-31T15:24:34;17.00;99.90
35277;DHT22;21401;50.878;8.050;2022-10-31T15:27:02;17.00;99.90
35277;DHT22;21401;50.878;8.050;2022-10-31T15:29:46;17.00;99.90
35277;DHT22;21401;50.878;8.050;2022-10-31T15:32:20;16.90;99.90
35277;DHT22;21401;50.878;8.050;2022-10-31T15:34:46;16.90;99.90
35277;DHT22;21401;50.878;8.050;2022-10-31T15:37:14;16.80;99.90
35277;DHT22;21401;50.878;8.050;2022-10-31T15:39:44;16.70;99.90
35277;DHT22;21401;50.878;8.050;2022-10-31T15:45:19;16.70;99.90
35277;DHT22;21401;50.878;8.050;2022-10-31T15:47:58;16.60;99.90
35277;DHT22;21401;50.878;8.050;2022-10-31T15:53:17;16.50;99.90
35277;DHT22;21401;50.878;8.050;2022-10-31T15:56:07;16.40;99.90
35277;DHT22;21401;50.878;8.050;2022-10-31T15:58:42;16.40;99.90
35277;DHT22;21401;50.878;8.050;2022-10-31T16:01:23;16.30;99.90
35277;DHT22;21401;50.878;8.050;2022-10-31T16:06:43;15.80;99.90
35277;DHT22;21401;50.878;8.050;2022-10-31T16:09:23;15.30;99.90
35277;DHT22;21401;50.878;8.050;2022-10-31T16:11:49;15.10;99.90
35277;DHT22;21401;50.878;8.050;2022-10-31T16:14:17;15.00;99.90
35277;DHT22;21401;50.878;8.050;2022-10-31T16:16:46;14.90;99.90
35277;DHT22;21401;50.878;8.050;2022-10-31T16:19:48;14.80;99.90
35277;DHT22;21401;50.878;8.050;2022-10-31T16:22:32;14.70;99.90
35277;DHT22;21401;50.878;8.050;2022-10-31T16:27:34;14.80;99.90
35277;DHT22;21401;50.878;8.050;2022-10-31T16:30:02;14.90;99.90
35277;DHT22;21401;50.878;8.050;2022-10-31T16:32:35;14.80;99.90
35277;DHT22;21401;50.878;8.050;2022-10-31T16:37:41;14.70;99.90
35277;DHT22;21401;50.878;8.050;2022-10-31T16:40:11;14.60;99.90
35277;DHT22;21401;50.878;8.050;2022-10-31T16:42:42;14.40;99.90
35277;DHT22;21401;50.878;8.050;2022-10-31T16:45:21;14.60;99.90
35277;DHT22;21401;50.878;8.050;2022-10-31T16:47:49;14.40;99.90
35277;DHT22;21401;50.878;8.050;2022-10-31T16:50:22;14.20;99.90
35277;DHT22;21401;50.878;8.050;2022-10-31T16:52:47;14.20;99.90
35277;DHT22;21401;50.878;8.050;2022-10-31T16:55:17;14.70;99.90
35277;DHT22;21401;50.878;8.050;2022-10-31T16:57:51;14.90;99.90
35277;DHT22;21401;50.878;8.050;2022-10-31T17:00:21;14.90;99.90
35277;DHT22;21401;50.878;8.050;2022-10-31T17:03:03;14.80;99.90
35277;DHT22;21401;50.878;8.050;2022-10-31T17:05:29;14.70;99.90
35277;DHT22;21401;50.878;8.050;2022-10-31T17:08:03;14.30;99.90
35277;DHT22;21401;50.878;8.050;2022-10-31T17:10:30;14.20;99.90
35277;DHT22;21401;50.878;8.050;2022-10-31T17:12:57;14.20;99.90
35277;DHT22;21401;50.878;8.050;2022-10-31T17:15:26;14.10;99.90
35277;DHT22;21401;50.878;8.050;2022-10-31T17:17:53;14.00;99.90
35277;DHT22;21401;50.878;8.050;2022-10-31T17:20:27;14.10;99.90
35277;DHT22;21401;50.878;8.050;2022-10-31T17:22:56;14.00;99.90
35277;DHT22;21401;50.878;8.050;2022-10-31T17:25:26;14.00;99.90
35277;DHT22;21401;50.878;8.050;2022-10-31T17:27:58;14.10;99.90
35277;DHT22;21401;50.878;8.050;2022-10-31T17:30:26;14.10;99.90
35277;DHT22;21401;50.878;8.050;2022-10-31T17:32:58;14.00;99.90
35277;DHT22;21401;50.878;8.050;2022-10-31T17:35:24;13.70;99.90
35277;DHT22;21401;50.878;8.050;2022-10-31T17:37:53;13.50;99.90
35277;DHT22;21401;50.878;8.050;2022-10-31T17:40:20;13.40;99.90
35277;DHT22;21401;50.878;8.050;2022-10-31T17:42:53;13.50;99.90
35277;DHT22;21401;50.878;8.050;2022-10-31T17:45:20;13.40;99.90
35277;DHT22;21401;50.878;8.050;2022-10-31T17:47:47;13.40;99.90
35277;DHT22;21401;50.878;8.050;2022-10-31T17:50:18;13.20;99.90
35277;DHT22;21401;50.878;8.050;2022-10-31T17:52:45;13.10;99.90
35277;DHT22;21401;50.878;8.050;2022-10-31T17:55:11;13.10;99.90
35277;DHT22;21401;50.878;8.050;2022-10-31T17:57:36;13.30;99.90
35277;DHT22;21401;50.878;8.050;2022-10-31T18:00:05;13.40;99.90
35277;DHT22;21401;50.878;8.050;2022-10-31T18:02:35;13.20;99.90
35277;DHT22;21401;50.878;8.050;2022-10-31T18:05:01;13.20;99.90
35277;DHT22;21401;50.878;8.050;2022-10-31T18:07:28;13.00;99.90
35277;DHT22;21401;50.878;8.050;2022-10-31T18:09:56;13.00;99.90
35277;DHT22;21401;50.878;8.050;2022-10-31T18:12:25;13.10;99.90
35277;DHT22;21401;50.878;8.050;2022-10-31T18:14:51;13.00;99.90
35277;DHT22;21401;50.878;8.050;2022-10-31T18:17:18;13.00;99.90
35277;DHT22;21401;50.878;8.050;2022-10-31T18:19:43;12.90;99.90
35277;DHT22;21401;50.878;8.050;2022-10-31T18:22:10;12.80;99.90
35277;DHT22;21401;50.878;8.050;2022-10-31T18:24:38;12.70;99.90
35277;DHT22;21401;50.878;8.050;2022-10-31T18:27:04;12.50;99.90
35277;DHT22;21401;50.878;8.050;2022-10-31T18:29:30;12.40;99.90
35277;DHT22;21401;50.878;8.050;2022-10-31T18:31:57;12.40;99.90
35277;DHT22;21401;50.878;8.050;2022-10-31T18:34:22;12.40;99.90
35277;DHT22;21401;50.878;8.050;2022-10-31T18:36:48;12.30;99.90
35277;DHT22;21401;50.878;8.050;2022-10-31T18:39:16;12.30;99.90